sensor_id;sensor_type;location;lat;lon;timestamp;P1;durP1;ratioP1;P2;durP2;ratioP2
37529;SDS011;23374;52.758;6.872;2022-11-21T00:00:51;15.97;;;8.53;;
37529;SDS011;23374;52.758;6.872;2022-11-21T00:03:16;16.90;;;8.87;;
37529;SDS011;23374;52.758;6.872;2022-11-21T00:05:44;18.30;;;9.00;;
37529;SDS011;23374;52.758;6.872;2022-11-21T00:08:06;18.23;;;9.30;;
37529;SDS011;23374;52.758;6.872;2022-11-21T00:10:32;17.93;;;8.90;;
37529;SDS011;23374;52.758;6.872;2022-11-21T00:12:55;17.33;;;9.33;;
37529;SDS011;23374;52.758;6.872;2022-11-21T00:15:16;19.00;;;9.17;;
37529;SDS011;23374;52.758;6.872;2022-11-21T00:17:36;19.00;;;9.80;;
37529;SDS011;23374;52.758;6.872;2022-11-21T00:19:57;17.20;;;8.83;;
37529;SDS011;23374;52.758;6.872;2022-11-21T00:22:17;18.90;;;9.07;;
37529;SDS011;23374;52.758;6.872;2022-11-21T00:24:37;20.20;;;9.10;;
37529;SDS011;23374;52.758;6.872;2022-11-21T00:27:00;20.27;;;9.20;;
37529;SDS011;23374;52.758;6.872;2022-11-21T00:29:22;15.87;;;8.80;;
37529;SDS011;23374;52.758;6.872;2022-11-21T00:31:43;19.10;;;9.53;;
37529;SDS011;23374;52.758;6.872;2022-11-21T00:34:03;17.43;;;9.13;;
37529;SDS011;23374;52.758;6.872;2022-11-21T00:36:24;18.97;;;9.77;;
37529;SDS011;23374;52.758;6.872;2022-11-21T00:38:45;16.33;;;9.03;;
37529;SDS011;23374;52.758;6.872;2022-11-21T00:41:05;17.40;;;9.90;;
37529;SDS011;23374;52.758;6.872;2022-11-21T00:43:29;19.47;;;8.93;;
37529;SDS011;23374;52.758;6.872;2022-11-21T00:45:48;16.87;;;8.40;;
37529;SDS011;23374;52.758;6.872;2022-11-21T00:48:08;18.10;;;9.73;;
37529;SDS011;23374;52.758;6.872;2022-11-21T00:50:29;16.53;;;9.00;;
37529;SDS011;23374;52.758;6.872;2022-11-21T00:52:53;17.30;;;9.00;;
37529;SDS011;23374;52.758;6.872;2022-11-21T00:55:15;17.53;;;9.23;;
37529;SDS011;23374;52.758;6.872;2022-11-21T00:57:38;16.83;;;8.30;;
37529;SDS011;23374;52.758;6.872;2022-11-21T00:59:58;18.70;;;8.60;;
37529;SDS011;23374;52.758;6.872;2022-11-21T01:02:23;17.73;;;9.63;;
37529;SDS011;23374;52.758;6.872;2022-11-21T01:04:44;19.17;;;9.90;;
37529;SDS011;23374;52.758;6.872;2022-11-21T01:07:04;19.70;;;8.90;;
37529;SDS011;23374;52.758;6.872;2022-11-21T01:09:28;20.27;;;9.23;;
37529;SDS011;23374;52.758;6.872;2022-11-21T01:11:48;18.20;;;8.87;;
37529;SDS011;23374;52.758;6.872;2022-11-21T01:14:11;16.63;;;8.63;;
37529;SDS011;23374;52.758;6.872;2022-11-21T01:16:32;22.60;;;9.03;;
37529;SDS011;23374;52.758;6.872;2022-11-21T01:18:53;16.23;;;9.03;;
37529;SDS011;23374;52.758;6.872;2022-11-21T01:21:20;17.27;;;9.10;;
37529;SDS011;23374;52.758;6.872;2022-11-21T01:23:47;16.77;;;8.87;;
37529;SDS011;23374;52.758;6.872;2022-11-21T01:26:10;17.17;;;8.27;;
37529;SDS011;23374;52.758;6.872;2022-11-21T01:28:35;19.20;;;8.93;;
37529;SDS011;23374;52.758;6.872;2022-11-21T01:31:02;16.60;;;8.20;;
37529;SDS011;23374;52.758;6.872;2022-11-21T01:33:24;14.80;;;8.70;;
37529;SDS011;23374;52.758;6.872;2022-11-21T01:35:47;21.93;;;9.60;;
37529;SDS011;23374;52.758;6.872;2022-11-21T01:38:07;21.97;;;9.43;;
37529;SDS011;23374;52.758;6.872;2022-11-21T01:40:28;17.23;;;8.93;;
37529;SDS011;23374;52.758;6.872;2022-11-21T01:42:59;18.63;;;9.30;;
37529;SDS011;23374;52.758;6.872;2022-11-21T01:49:00;17.93;;;8.40;;
37529;SDS011;23374;52.758;6.872;2022-11-21T01:52:25;21.70;;;9.60;;
37529;SDS011;23374;52.758;6.872;2022-11-21T01:54:58;17.43;;;9.37;;
37529;SDS011;23374;52.758;6.872;2022-11-21T01:57:30;18.67;;;9.23;;
37529;SDS011;23374;52.758;6.872;2022-11-21T02:00:11;21.33;;;9.83;;
37529;SDS011;23374;52.758;6.872;2022-11-21T02:02:44;19.63;;;9.40;;
37529;SDS011;23374;52.758;6.872;2022-11-21T02:05:12;19.37;;;9.63;;
37529;SDS011;23374;52.758;6.872;2022-11-21T02:07:37;17.87;;;9.47;;
37529;SDS011;23374;52.758;6.872;2022-11-21T02:10:00;19.03;;;9.73;;
37529;SDS011;23374;52.758;6.872;2022-11-21T02:12:38;22.23;;;10.17;;
37529;SDS011;23374;52.758;6.872;2022-11-21T02:15:07;18.70;;;10.00;;
37529;SDS011;23374;52.758;6.872;2022-11-21T02:17:28;18.73;;;9.63;;
37529;SDS011;23374;52.758;6.872;2022-11-21T02:19:55;19.10;;;9.43;;
37529;SDS011;23374;52.758;6.872;2022-11-21T02:28:20;18.00;;;8.30;;
37529;SDS011;23374;52.758;6.872;2022-11-21T02:30:42;15.97;;;9.03;;
37529;SDS011;23374;52.758;6.872;2022-11-21T02:33:03;18.07;;;9.37;;
37529;SDS011;23374;52.758;6.872;2022-11-21T02:35:24;19.77;;;9.70;;
37529;SDS011;23374;52.758;6.872;2022-11-21T02:37:56;17.77;;;8.70;;
37529;SDS011;23374;52.758;6.872;2022-11-21T02:41:15;16.03;;;8.20;;
37529;SDS011;23374;52.758;6.872;2022-11-21T02:43:48;15.30;;;8.37;;
37529;SDS011;23374;52.758;6.872;2022-11-21T02:46:11;17.37;;;8.73;;
37529;SDS011;23374;52.758;6.872;2022-11-21T02:48:32;18.13;;;9.13;;
37529;SDS011;23374;52.758;6.872;2022-11-21T02:50:53;16.37;;;8.30;;
37529;SDS011;23374;52.758;6.872;2022-11-21T02:53:14;16.83;;;9.13;;
37529;SDS011;23374;52.758;6.872;2022-11-21T02:55:37;17.80;;;8.40;;
37529;SDS011;23374;52.758;6.872;2022-11-21T02:57:58;17.23;;;9.40;;
37529;SDS011;23374;52.758;6.872;2022-11-21T03:00:22;15.37;;;7.93;;
37529;SDS011;23374;52.758;6.872;2022-11-21T03:02:43;15.17;;;8.47;;
37529;SDS011;23374;52.758;6.872;2022-11-21T03:05:05;21.90;;;10.03;;
37529;SDS011;23374;52.758;6.872;2022-11-21T03:07:27;16.63;;;7.80;;
37529;SDS011;23374;52.758;6.872;2022-11-21T03:09:48;14.27;;;7.53;;
37529;SDS011;23374;52.758;6.872;2022-11-21T03:12:08;15.13;;;8.60;;
37529;SDS011;23374;52.758;6.872;2022-11-21T03:14:29;14.83;;;8.33;;
37529;SDS011;23374;52.758;6.872;2022-11-21T03:16:50;18.77;;;8.80;;
37529;SDS011;23374;52.758;6.872;2022-11-21T03:19:10;18.50;;;7.83;;
37529;SDS011;23374;52.758;6.872;2022-11-21T03:21:30;14.97;;;7.97;;
37529;SDS011;23374;52.758;6.872;2022-11-21T03:23:50;16.73;;;7.70;;
37529;SDS011;23374;52.758;6.872;2022-11-21T03:26:11;12.97;;;7.60;;
37529;SDS011;23374;52.758;6.872;2022-11-21T03:28:34;18.60;;;8.97;;
37529;SDS011;23374;52.758;6.872;2022-11-21T03:30:54;17.50;;;9.17;;
37529;SDS011;23374;52.758;6.872;2022-11-21T03:33:14;17.77;;;8.73;;
37529;SDS011;23374;52.758;6.872;2022-11-21T03:35:35;18.87;;;9.40;;
37529;SDS011;23374;52.758;6.872;2022-11-21T03:37:55;19.10;;;8.43;;
37529;SDS011;23374;52.758;6.872;2022-11-21T03:40:15;14.10;;;8.07;;
37529;SDS011;23374;52.758;6.872;2022-11-21T03:42:36;13.60;;;7.47;;
37529;SDS011;23374;52.758;6.872;2022-11-21T03:44:56;14.63;;;8.17;;
37529;SDS011;23374;52.758;6.872;2022-11-21T03:47:16;16.53;;;8.57;;
37529;SDS011;23374;52.758;6.872;2022-11-21T03:49:37;18.73;;;9.27;;
37529;SDS011;23374;52.758;6.872;2022-11-21T03:51:57;17.60;;;9.73;;
37529;SDS011;23374;52.758;6.872;2022-11-21T03:54:17;14.63;;;8.33;;
37529;SDS011;23374;52.758;6.872;2022-11-21T03:56:40;18.90;;;9.27;;
37529;SDS011;23374;52.758;6.872;2022-11-21T03:59:01;15.77;;;8.90;;
37529;SDS011;23374;52.758;6.872;2022-11-21T04:01:21;14.30;;;7.63;;
37529;SDS011;23374;52.758;6.872;2022-11-21T04:03:45;20.37;;;9.57;;
37529;SDS011;23374;52.758;6.872;2022-11-21T04:06:06;15.50;;;7.90;;
37529;SDS011;23374;52.758;6.872;2022-11-21T04:08:26;17.83;;;8.33;;
37529;SDS011;23374;52.758;6.872;2022-11-21T04:10:48;18.40;;;8.93;;
37529;SDS011;23374;52.758;6.872;2022-11-21T04:13:10;21.67;;;9.53;;
37529;SDS011;23374;52.758;6.872;2022-11-21T04:15:33;13.00;;;6.97;;
37529;SDS011;23374;52.758;6.872;2022-11-21T04:17:53;14.80;;;7.37;;
37529;SDS011;23374;52.758;6.872;2022-11-21T04:20:16;14.53;;;7.60;;
37529;SDS011;23374;52.758;6.872;2022-11-21T04:22:37;14.13;;;7.83;;
37529;SDS011;23374;52.758;6.872;2022-11-21T04:25:00;15.73;;;8.77;;
37529;SDS011;23374;52.758;6.872;2022-11-21T04:27:20;15.17;;;7.40;;
37529;SDS011;23374;52.758;6.872;2022-11-21T04:29:40;13.73;;;8.00;;
37529;SDS011;23374;52.758;6.872;2022-11-21T04:32:00;17.30;;;8.30;;
37529;SDS011;23374;52.758;6.872;2022-11-21T04:34:24;14.10;;;8.07;;
37529;SDS011;23374;52.758;6.872;2022-11-21T04:36:44;15.33;;;7.47;;
37529;SDS011;23374;52.758;6.872;2022-11-21T04:39:05;19.20;;;8.67;;
37529;SDS011;23374;52.758;6.872;2022-11-21T04:41:25;14.20;;;7.40;;
37529;SDS011;23374;52.758;6.872;2022-11-21T04:43:45;16.57;;;8.27;;
37529;SDS011;23374;52.758;6.872;2022-11-21T04:46:09;17.40;;;8.37;;
37529;SDS011;23374;52.758;6.872;2022-11-21T04:48:29;17.20;;;9.00;;
37529;SDS011;23374;52.758;6.872;2022-11-21T04:50:51;14.60;;;7.50;;
37529;SDS011;23374;52.758;6.872;2022-11-21T04:53:11;16.17;;;7.93;;
37529;SDS011;23374;52.758;6.872;2022-11-21T04:55:31;13.80;;;7.60;;
37529;SDS011;23374;52.758;6.872;2022-11-21T04:57:54;15.27;;;7.37;;
37529;SDS011;23374;52.758;6.872;2022-11-21T05:00:15;12.97;;;7.33;;
37529;SDS011;23374;52.758;6.872;2022-11-21T05:02:37;17.00;;;8.80;;
37529;SDS011;23374;52.758;6.872;2022-11-21T05:04:58;15.70;;;7.87;;
37529;SDS011;23374;52.758;6.872;2022-11-21T05:07:21;16.50;;;7.70;;
37529;SDS011;23374;52.758;6.872;2022-11-21T05:09:41;14.30;;;7.47;;
37529;SDS011;23374;52.758;6.872;2022-11-21T05:12:02;14.27;;;6.60;;
37529;SDS011;23374;52.758;6.872;2022-11-21T05:14:41;13.43;;;7.77;;
37529;SDS011;23374;52.758;6.872;2022-11-21T05:17:01;15.30;;;7.93;;
37529;SDS011;23374;52.758;6.872;2022-11-21T05:19:21;14.37;;;8.40;;
37529;SDS011;23374;52.758;6.872;2022-11-21T05:21:45;13.17;;;7.97;;
37529;SDS011;23374;52.758;6.872;2022-11-21T05:24:06;12.63;;;7.43;;
37529;SDS011;23374;52.758;6.872;2022-11-21T05:26:26;14.30;;;7.13;;
37529;SDS011;23374;52.758;6.872;2022-11-21T05:28:46;13.17;;;6.73;;
37529;SDS011;23374;52.758;6.872;2022-11-21T05:31:07;16.87;;;8.20;;
37529;SDS011;23374;52.758;6.872;2022-11-21T05:33:29;12.90;;;7.37;;
37529;SDS011;23374;52.758;6.872;2022-11-21T05:35:50;12.90;;;6.87;;
37529;SDS011;23374;52.758;6.872;2022-11-21T05:38:10;13.87;;;8.00;;
37529;SDS011;23374;52.758;6.872;2022-11-21T05:40:30;16.70;;;7.37;;
37529;SDS011;23374;52.758;6.872;2022-11-21T05:42:51;11.93;;;6.87;;
37529;SDS011;23374;52.758;6.872;2022-11-21T05:45:30;19.00;;;6.60;;
37529;SDS011;23374;52.758;6.872;2022-11-21T05:47:50;14.77;;;7.30;;
37529;SDS011;23374;52.758;6.872;2022-11-21T05:50:11;15.03;;;7.20;;
37529;SDS011;23374;52.758;6.872;2022-11-21T05:52:31;16.50;;;7.87;;
37529;SDS011;23374;52.758;6.872;2022-11-21T05:54:54;17.20;;;8.23;;
37529;SDS011;23374;52.758;6.872;2022-11-21T05:57:14;14.93;;;8.70;;
37529;SDS011;23374;52.758;6.872;2022-11-21T05:59:35;18.13;;;9.27;;
37529;SDS011;23374;52.758;6.872;2022-11-21T06:01:55;16.90;;;8.53;;
37529;SDS011;23374;52.758;6.872;2022-11-21T06:04:39;17.43;;;7.97;;
37529;SDS011;23374;52.758;6.872;2022-11-21T06:07:00;17.23;;;8.03;;
37529;SDS011;23374;52.758;6.872;2022-11-21T06:09:23;15.40;;;8.27;;
37529;SDS011;23374;52.758;6.872;2022-11-21T06:11:43;14.00;;;8.23;;
37529;SDS011;23374;52.758;6.872;2022-11-21T06:14:04;16.47;;;8.07;;
37529;SDS011;23374;52.758;6.872;2022-11-21T06:16:24;13.87;;;7.87;;
37529;SDS011;23374;52.758;6.872;2022-11-21T06:18:46;15.30;;;8.53;;
37529;SDS011;23374;52.758;6.872;2022-11-21T06:21:13;15.47;;;8.50;;
37529;SDS011;23374;52.758;6.872;2022-11-21T06:23:35;16.93;;;9.50;;
37529;SDS011;23374;52.758;6.872;2022-11-21T06:25:56;18.47;;;8.83;;
37529;SDS011;23374;52.758;6.872;2022-11-21T06:28:17;20.20;;;8.80;;
37529;SDS011;23374;52.758;6.872;2022-11-21T06:30:42;17.20;;;8.30;;
37529;SDS011;23374;52.758;6.872;2022-11-21T06:33:05;19.30;;;10.33;;
37529;SDS011;23374;52.758;6.872;2022-11-21T06:35:25;18.87;;;9.63;;
37529;SDS011;23374;52.758;6.872;2022-11-21T06:37:48;23.07;;;10.80;;
37529;SDS011;23374;52.758;6.872;2022-11-21T06:40:10;21.87;;;10.33;;
37529;SDS011;23374;52.758;6.872;2022-11-21T06:42:31;21.77;;;9.80;;
37529;SDS011;23374;52.758;6.872;2022-11-21T06:44:52;17.97;;;9.10;;
37529;SDS011;23374;52.758;6.872;2022-11-21T06:47:12;21.37;;;9.30;;
37529;SDS011;23374;52.758;6.872;2022-11-21T06:49:32;21.57;;;10.17;;
37529;SDS011;23374;52.758;6.872;2022-11-21T06:51:53;18.37;;;8.97;;
37529;SDS011;23374;52.758;6.872;2022-11-21T06:54:16;19.43;;;9.43;;
37529;SDS011;23374;52.758;6.872;2022-11-21T06:56:37;21.60;;;10.20;;
37529;SDS011;23374;52.758;6.872;2022-11-21T06:58:57;22.23;;;10.70;;
37529;SDS011;23374;52.758;6.872;2022-11-21T07:01:20;19.13;;;9.40;;
37529;SDS011;23374;52.758;6.872;2022-11-21T07:03:41;18.87;;;9.47;;
37529;SDS011;23374;52.758;6.872;2022-11-21T07:06:05;15.70;;;9.43;;
37529;SDS011;23374;52.758;6.872;2022-11-21T07:08:30;21.53;;;9.53;;
37529;SDS011;23374;52.758;6.872;2022-11-21T07:10:51;20.97;;;10.33;;
37529;SDS011;23374;52.758;6.872;2022-11-21T07:13:11;22.63;;;11.30;;
37529;SDS011;23374;52.758;6.872;2022-11-21T07:15:41;20.43;;;9.90;;
37529;SDS011;23374;52.758;6.872;2022-11-21T07:18:09;17.53;;;9.80;;
37529;SDS011;23374;52.758;6.872;2022-11-21T07:20:32;19.57;;;9.77;;
37529;SDS011;23374;52.758;6.872;2022-11-21T07:22:53;18.50;;;9.10;;
37529;SDS011;23374;52.758;6.872;2022-11-21T07:25:14;20.10;;;8.57;;
37529;SDS011;23374;52.758;6.872;2022-11-21T07:27:34;20.20;;;8.60;;
37529;SDS011;23374;52.758;6.872;2022-11-21T07:29:55;15.20;;;8.57;;
37529;SDS011;23374;52.758;6.872;2022-11-21T07:32:23;21.23;;;11.57;;
37529;SDS011;23374;52.758;6.872;2022-11-21T07:34:44;19.43;;;9.37;;
37529;SDS011;23374;52.758;6.872;2022-11-21T07:37:04;17.10;;;8.97;;
37529;SDS011;23374;52.758;6.872;2022-11-21T07:39:30;21.83;;;11.30;;
37529;SDS011;23374;52.758;6.872;2022-11-21T07:41:54;18.70;;;9.57;;
37529;SDS011;23374;52.758;6.872;2022-11-21T07:44:15;23.60;;;9.70;;
37529;SDS011;23374;52.758;6.872;2022-11-21T07:46:35;23.03;;;10.93;;
37529;SDS011;23374;52.758;6.872;2022-11-21T07:48:56;21.67;;;11.83;;
37529;SDS011;23374;52.758;6.872;2022-11-21T07:51:16;22.50;;;10.37;;
37529;SDS011;23374;52.758;6.872;2022-11-21T07:53:36;20.77;;;10.83;;
37529;SDS011;23374;52.758;6.872;2022-11-21T07:55:57;18.90;;;9.83;;
37529;SDS011;23374;52.758;6.872;2022-11-21T07:58:21;24.80;;;11.37;;
37529;SDS011;23374;52.758;6.872;2022-11-21T08:00:44;24.43;;;9.73;;
37529;SDS011;23374;52.758;6.872;2022-11-21T08:03:04;23.57;;;11.47;;
37529;SDS011;23374;52.758;6.872;2022-11-21T08:05:34;24.13;;;11.40;;
37529;SDS011;23374;52.758;6.872;2022-11-21T08:07:56;18.00;;;9.00;;
37529;SDS011;23374;52.758;6.872;2022-11-21T08:10:17;20.03;;;9.43;;
37529;SDS011;23374;52.758;6.872;2022-11-21T08:12:38;21.53;;;10.13;;
37529;SDS011;23374;52.758;6.872;2022-11-21T08:14:58;21.43;;;9.90;;
37529;SDS011;23374;52.758;6.872;2022-11-21T08:17:19;20.50;;;9.90;;
37529;SDS011;23374;52.758;6.872;2022-11-21T08:19:39;26.50;;;11.07;;
37529;SDS011;23374;52.758;6.872;2022-11-21T08:22:00;19.63;;;10.60;;
37529;SDS011;23374;52.758;6.872;2022-11-21T08:24:20;23.10;;;9.73;;
37529;SDS011;23374;52.758;6.872;2022-11-21T08:26:44;19.20;;;9.73;;
37529;SDS011;23374;52.758;6.872;2022-11-21T08:29:04;21.40;;;10.43;;
37529;SDS011;23374;52.758;6.872;2022-11-21T08:31:30;21.17;;;11.10;;
37529;SDS011;23374;52.758;6.872;2022-11-21T08:33:55;18.93;;;10.30;;
37529;SDS011;23374;52.758;6.872;2022-11-21T08:36:15;17.97;;;10.73;;
37529;SDS011;23374;52.758;6.872;2022-11-21T08:38:35;21.50;;;11.43;;
37529;SDS011;23374;52.758;6.872;2022-11-21T08:40:55;21.17;;;11.07;;
37529;SDS011;23374;52.758;6.872;2022-11-21T08:43:34;24.43;;;11.17;;
37529;SDS011;23374;52.758;6.872;2022-11-21T08:45:55;20.87;;;10.83;;
37529;SDS011;23374;52.758;6.872;2022-11-21T08:48:16;21.83;;;10.20;;
37529;SDS011;23374;52.758;6.872;2022-11-21T08:50:36;25.87;;;11.87;;
37529;SDS011;23374;52.758;6.872;2022-11-21T08:53:00;23.03;;;10.97;;
37529;SDS011;23374;52.758;6.872;2022-11-21T08:55:20;20.87;;;10.67;;
37529;SDS011;23374;52.758;6.872;2022-11-21T08:57:41;23.53;;;10.90;;
37529;SDS011;23374;52.758;6.872;2022-11-21T09:00:02;21.67;;;10.17;;
37529;SDS011;23374;52.758;6.872;2022-11-21T09:02:23;20.37;;;10.50;;
37529;SDS011;23374;52.758;6.872;2022-11-21T09:04:44;26.47;;;10.80;;
37529;SDS011;23374;52.758;6.872;2022-11-21T09:07:07;21.37;;;9.13;;
37529;SDS011;23374;52.758;6.872;2022-11-21T09:09:27;21.30;;;11.87;;
37529;SDS011;23374;52.758;6.872;2022-11-21T09:11:52;21.40;;;10.27;;
37529;SDS011;23374;52.758;6.872;2022-11-21T09:14:12;19.73;;;10.20;;
37529;SDS011;23374;52.758;6.872;2022-11-21T09:16:51;20.77;;;10.30;;
37529;SDS011;23374;52.758;6.872;2022-11-21T09:19:30;21.50;;;10.57;;
37529;SDS011;23374;52.758;6.872;2022-11-21T09:21:51;20.00;;;11.17;;
37529;SDS011;23374;52.758;6.872;2022-11-21T09:24:11;18.60;;;8.70;;
37529;SDS011;23374;52.758;6.872;2022-11-21T09:26:34;18.87;;;10.80;;
37529;SDS011;23374;52.758;6.872;2022-11-21T09:28:54;21.57;;;10.73;;
37529;SDS011;23374;52.758;6.872;2022-11-21T09:31:17;23.77;;;11.10;;
37529;SDS011;23374;52.758;6.872;2022-11-21T09:33:38;22.77;;;11.93;;
37529;SDS011;23374;52.758;6.872;2022-11-21T09:35:58;22.53;;;11.57;;
37529;SDS011;23374;52.758;6.872;2022-11-21T09:38:19;20.50;;;11.17;;
37529;SDS011;23374;52.758;6.872;2022-11-21T09:40:42;21.10;;;9.97;;
37529;SDS011;23374;52.758;6.872;2022-11-21T09:43:38;19.97;;;10.90;;
37529;SDS011;23374;52.758;6.872;2022-11-21T09:47:51;25.40;;;10.87;;
37529;SDS011;23374;52.758;6.872;2022-11-21T09:50:36;19.60;;;10.03;;
37529;SDS011;23374;52.758;6.872;2022-11-21T09:53:32;21.47;;;10.13;;
37529;SDS011;23374;52.758;6.872;2022-11-21T09:56:13;26.00;;;10.67;;
37529;SDS011;23374;52.758;6.872;2022-11-21T09:58:47;20.00;;;10.90;;
37529;SDS011;23374;52.758;6.872;2022-11-21T10:01:29;23.80;;;11.47;;
37529;SDS011;23374;52.758;6.872;2022-11-21T10:03:50;25.17;;;11.77;;
37529;SDS011;23374;52.758;6.872;2022-11-21T10:06:28;22.50;;;11.40;;
37529;SDS011;23374;52.758;6.872;2022-11-21T10:15:30;15.03;;;7.00;;
37529;SDS011;23374;52.758;6.872;2022-11-21T10:19:13;19.80;;;9.93;;
37529;SDS011;23374;52.758;6.872;2022-11-21T10:32:39;18.10;;;9.00;;
37529;SDS011;23374;52.758;6.872;2022-11-21T10:35:13;13.87;;;6.13;;
37529;SDS011;23374;52.758;6.872;2022-11-21T10:37:36;20.97;;;9.77;;
37529;SDS011;23374;52.758;6.872;2022-11-21T10:39:58;22.53;;;10.63;;
37529;SDS011;23374;52.758;6.872;2022-11-21T10:49:28;24.20;;;11.30;;
37529;SDS011;23374;52.758;6.872;2022-11-21T10:51:59;17.57;;;8.10;;
37529;SDS011;23374;52.758;6.872;2022-11-21T10:54:31;20.00;;;8.67;;
37529;SDS011;23374;52.758;6.872;2022-11-21T10:56:51;14.30;;;7.90;;
37529;SDS011;23374;52.758;6.872;2022-11-21T10:59:28;16.40;;;8.43;;
37529;SDS011;23374;52.758;6.872;2022-11-21T11:02:00;14.60;;;7.67;;
37529;SDS011;23374;52.758;6.872;2022-11-21T11:04:40;15.87;;;7.83;;
37529;SDS011;23374;52.758;6.872;2022-11-21T11:07:24;18.83;;;8.37;;
37529;SDS011;23374;52.758;6.872;2022-11-21T11:09:46;15.90;;;7.87;;
37529;SDS011;23374;52.758;6.872;2022-11-21T11:13:17;14.13;;;6.53;;
37529;SDS011;23374;52.758;6.872;2022-11-21T11:16:48;13.20;;;7.30;;
37529;SDS011;23374;52.758;6.872;2022-11-21T11:19:27;15.80;;;8.57;;
37529;SDS011;23374;52.758;6.872;2022-11-21T11:21:48;16.50;;;8.70;;
37529;SDS011;23374;52.758;6.872;2022-11-21T11:24:21;17.27;;;8.77;;
37529;SDS011;23374;52.758;6.872;2022-11-21T11:27:03;17.83;;;8.43;;
37529;SDS011;23374;52.758;6.872;2022-11-21T11:29:30;15.17;;;7.90;;
37529;SDS011;23374;52.758;6.872;2022-11-21T11:32:16;17.80;;;8.57;;
37529;SDS011;23374;52.758;6.872;2022-11-21T11:34:38;12.03;;;4.47;;
37529;SDS011;23374;52.758;6.872;2022-11-21T11:37:54;17.67;;;9.00;;
37529;SDS011;23374;52.758;6.872;2022-11-21T11:40:31;14.83;;;8.70;;
37529;SDS011;23374;52.758;6.872;2022-11-21T11:43:44;20.83;;;8.93;;
37529;SDS011;23374;52.758;6.872;2022-11-21T11:47:21;6.90;;;4.60;;
37529;SDS011;23374;52.758;6.872;2022-11-21T11:49:51;21.10;;;9.57;;
37529;SDS011;23374;52.758;6.872;2022-11-21T11:52:53;14.43;;;7.07;;
37529;SDS011;23374;52.758;6.872;2022-11-21T11:55:52;14.80;;;8.23;;
37529;SDS011;23374;52.758;6.872;2022-11-21T11:58:24;16.50;;;7.90;;
37529;SDS011;23374;52.758;6.872;2022-11-21T12:02:03;17.80;;;9.03;;
37529;SDS011;23374;52.758;6.872;2022-11-21T12:04:43;17.27;;;7.67;;
37529;SDS011;23374;52.758;6.872;2022-11-21T12:11:22;18.63;;;8.37;;
37529;SDS011;23374;52.758;6.872;2022-11-21T12:14:29;14.80;;;7.57;;
37529;SDS011;23374;52.758;6.872;2022-11-21T12:18:55;13.43;;;7.00;;
37529;SDS011;23374;52.758;6.872;2022-11-21T12:21:21;17.10;;;8.10;;
37529;SDS011;23374;52.758;6.872;2022-11-21T12:23:52;11.57;;;6.77;;
37529;SDS011;23374;52.758;6.872;2022-11-21T12:30:49;14.03;;;6.90;;
37529;SDS011;23374;52.758;6.872;2022-11-21T12:36:37;13.13;;;7.37;;
37529;SDS011;23374;52.758;6.872;2022-11-21T12:39:43;17.97;;;8.00;;
37529;SDS011;23374;52.758;6.872;2022-11-21T12:45:54;19.87;;;8.87;;
37529;SDS011;23374;52.758;6.872;2022-11-21T12:50:32;21.10;;;9.90;;
37529;SDS011;23374;52.758;6.872;2022-11-21T12:53:54;23.63;;;10.90;;
37529;SDS011;23374;52.758;6.872;2022-11-21T13:00:24;20.10;;;9.87;;
37529;SDS011;23374;52.758;6.872;2022-11-21T13:03:59;23.40;;;9.50;;
37529;SDS011;23374;52.758;6.872;2022-11-21T13:06:29;20.33;;;10.37;;
37529;SDS011;23374;52.758;6.872;2022-11-21T13:08:53;22.83;;;11.33;;
37529;SDS011;23374;52.758;6.872;2022-11-21T13:12:04;26.70;;;11.27;;
37529;SDS011;23374;52.758;6.872;2022-11-21T13:15:03;25.00;;;10.80;;
37529;SDS011;23374;52.758;6.872;2022-11-21T13:18:29;20.87;;;9.47;;
37529;SDS011;23374;52.758;6.872;2022-11-21T13:20:55;25.23;;;11.40;;
37529;SDS011;23374;52.758;6.872;2022-11-21T13:23:43;23.13;;;11.13;;
37529;SDS011;23374;52.758;6.872;2022-11-21T13:27:34;23.80;;;11.30;;
37529;SDS011;23374;52.758;6.872;2022-11-21T13:30:35;23.60;;;11.53;;
37529;SDS011;23374;52.758;6.872;2022-11-21T13:33:07;25.30;;;12.70;;
37529;SDS011;23374;52.758;6.872;2022-11-21T13:35:54;22.57;;;11.63;;
37529;SDS011;23374;52.758;6.872;2022-11-21T13:38:17;24.80;;;11.97;;
37529;SDS011;23374;52.758;6.872;2022-11-21T13:40:38;26.43;;;13.03;;
37529;SDS011;23374;52.758;6.872;2022-11-21T13:45:35;26.60;;;11.33;;
37529;SDS011;23374;52.758;6.872;2022-11-21T13:54:41;24.90;;;12.30;;
37529;SDS011;23374;52.758;6.872;2022-11-21T14:05:30;25.13;;;10.93;;
37529;SDS011;23374;52.758;6.872;2022-11-21T14:14:52;20.20;;;8.37;;
37529;SDS011;23374;52.758;6.872;2022-11-21T14:17:55;20.67;;;9.83;;
37529;SDS011;23374;52.758;6.872;2022-11-21T14:20:28;28.77;;;12.00;;
37529;SDS011;23374;52.758;6.872;2022-11-21T14:23:00;27.90;;;13.63;;
37529;SDS011;23374;52.758;6.872;2022-11-21T14:25:36;24.20;;;12.13;;
37529;SDS011;23374;52.758;6.872;2022-11-21T14:28:23;29.93;;;13.57;;
37529;SDS011;23374;52.758;6.872;2022-11-21T14:30:47;29.47;;;12.70;;
37529;SDS011;23374;52.758;6.872;2022-11-21T14:33:27;26.63;;;12.30;;
37529;SDS011;23374;52.758;6.872;2022-11-21T14:36:19;21.73;;;10.17;;
37529;SDS011;23374;52.758;6.872;2022-11-21T14:38:52;30.97;;;13.43;;
37529;SDS011;23374;52.758;6.872;2022-11-21T14:41:49;26.20;;;9.57;;
37529;SDS011;23374;52.758;6.872;2022-11-21T14:44:18;26.87;;;12.60;;
37529;SDS011;23374;52.758;6.872;2022-11-21T14:46:44;30.97;;;14.20;;
37529;SDS011;23374;52.758;6.872;2022-11-21T14:49:38;33.97;;;15.13;;
37529;SDS011;23374;52.758;6.872;2022-11-21T14:52:29;26.73;;;11.30;;
37529;SDS011;23374;52.758;6.872;2022-11-21T14:54:55;29.57;;;12.27;;
37529;SDS011;23374;52.758;6.872;2022-11-21T14:57:37;28.57;;;11.97;;
37529;SDS011;23374;52.758;6.872;2022-11-21T15:00:01;41.47;;;12.67;;
37529;SDS011;23374;52.758;6.872;2022-11-21T15:02:27;34.77;;;14.87;;
37529;SDS011;23374;52.758;6.872;2022-11-21T15:04:53;35.90;;;15.17;;
37529;SDS011;23374;52.758;6.872;2022-11-21T15:07:27;38.60;;;14.60;;
37529;SDS011;23374;52.758;6.872;2022-11-21T15:09:53;42.47;;;14.90;;
37529;SDS011;23374;52.758;6.872;2022-11-21T15:16:15;29.27;;;10.17;;
37529;SDS011;23374;52.758;6.872;2022-11-21T15:18:39;33.00;;;14.50;;
37529;SDS011;23374;52.758;6.872;2022-11-21T15:21:03;47.20;;;15.23;;
37529;SDS011;23374;52.758;6.872;2022-11-21T15:23:32;41.23;;;15.70;;
37529;SDS011;23374;52.758;6.872;2022-11-21T15:26:00;43.80;;;13.87;;
37529;SDS011;23374;52.758;6.872;2022-11-21T15:28:21;40.90;;;13.67;;
37529;SDS011;23374;52.758;6.872;2022-11-21T15:30:42;42.83;;;14.87;;
37529;SDS011;23374;52.758;6.872;2022-11-21T15:33:09;39.47;;;13.80;;
37529;SDS011;23374;52.758;6.872;2022-11-21T15:37:10;24.83;;;10.07;;
37529;SDS011;23374;52.758;6.872;2022-11-21T15:39:34;45.60;;;14.13;;
37529;SDS011;23374;52.758;6.872;2022-11-21T15:41:54;47.63;;;16.27;;
37529;SDS011;23374;52.758;6.872;2022-11-21T15:45:01;39.87;;;15.53;;
37529;SDS011;23374;52.758;6.872;2022-11-21T15:47:49;55.17;;;15.60;;
37529;SDS011;23374;52.758;6.872;2022-11-21T15:50:11;48.87;;;17.27;;
37529;SDS011;23374;52.758;6.872;2022-11-21T15:52:43;39.63;;;14.53;;
37529;SDS011;23374;52.758;6.872;2022-11-21T15:55:12;51.87;;;17.33;;
37529;SDS011;23374;52.758;6.872;2022-11-21T15:57:37;51.67;;;17.20;;
37529;SDS011;23374;52.758;6.872;2022-11-21T15:59:57;50.87;;;14.97;;
37529;SDS011;23374;52.758;6.872;2022-11-21T16:02:21;47.80;;;16.00;;
37529;SDS011;23374;52.758;6.872;2022-11-21T16:04:41;43.17;;;14.80;;
37529;SDS011;23374;52.758;6.872;2022-11-21T16:07:01;45.40;;;15.83;;